Time;durP1;ratioP1;P1;durP2;ratioP2;P2;SDS_P1;SDS_P2;PMS_P1;PMS_P2;Temp;Humidity;BMP_temperature;BMP_pressure;BME280_temperature;BME280_humidity;BME280_pressure;Samples;Min_cycle;Max_cycle;Signal;HPM_P1;HPM_P2
2021/10/04 00:01:18;;;;;;;2.40;0.63;;;;;;;8.51;100.00;99581.22;4969015;28;20496;-65
2021/10/04 00:03:44;;;;;;;2.72;0.80;;;;;;;8.36;100.00;99580.41;4985688;28;20030;-66
2021/10/04 00:06:10;;;;;;;1.48;0.60;;;;;;;8.24;100.00;99584.63;5004605;28;20451;-65
2021/10/04 00:08:35;;;;;;;4.97;1.00;;;;;;;8.08;100.00;99585.66;4948319;28;20129;-64
2021/10/04 00:11:07;;;;;;;4.47;0.77;;;;;;;8.04;100.00;99595.09;4991102;28;20472;-68
2021/10/04 00:13:38;;;;;;;4.20;0.88;;;;;;;8.07;100.00;99592.03;4978743;28;20094;-65
2021/10/04 00:16:04;;;;;;;4.88;1.00;;;;;;;8.04;100.00;99585.19;4997342;28;20049;-65
2021/10/04 00:18:30;;;;;;;3.42;0.80;;;;;;;8.11;100.00;99593.31;4978928;28;20026;-68
2021/10/04 00:20:55;;;;;;;1.65;0.73;;;;;;;8.13;100.00;99599.31;4981694;28;20353;-63
2021/10/04 00:23:21;;;;;;;4.28;0.80;;;;;;;8.26;100.00;99609.38;4981307;28;20522;-69
2021/10/04 00:25:47;;;;;;;1.55;0.85;;;;;;;8.41;100.00;99607.47;4982182;28;20034;-66
2021/10/04 00:28:13;;;;;;;2.17;0.90;;;;;;;8.49;100.00;99609.22;4982799;28;20038;-64
2021/10/04 00:30:39;;;;;;;4.10;0.85;;;;;;;8.54;100.00;99612.16;4964691;28;20042;-65
2021/10/04 00:33:05;;;;;;;3.53;0.80;;;;;;;8.57;100.00;99603.72;4978260;28;20036;-68
2021/10/04 00:35:31;;;;;;;3.05;0.98;;;;;;;8.56;100.00;99602.06;4958717;28;20491;-67
2021/10/04 00:37:57;;;;;;;1.60;0.65;;;;;;;8.56;100.00;99594.84;4978053;28;20400;-65
2021/10/04 00:40:28;;;;;;;5.57;1.33;;;;;;;8.52;100.00;99601.63;4981609;28;20030;-63
2021/10/04 00:42:54;;;;;;;1.90;0.90;;;;;;;8.59;100.00;99615.91;4978541;28;20372;-65
2021/10/04 00:45:20;;;;;;;4.63;0.90;;;;;;;8.63;100.00;99613.69;4965885;28;20475;-66
2021/10/04 00:47:46;;;;;;;5.15;1.15;;;;;;;8.62;100.00;99598.63;4980967;28;20539;-66
2021/10/04 00:50:12;;;;;;;7.07;1.40;;;;;;;8.70;100.00;99606.53;4978686;28;20036;-67
2021/10/04 00:52:38;;;;;;;4.38;1.13;;;;;;;8.66;100.00;99597.22;4979192;28;20391;-65
2021/10/04 00:55:06;;;;;;;4.70;0.90;;;;;;;8.65;100.00;99594.72;4980132;28;20038;-65
2021/10/04 00:57:32;;;;;;;5.95;0.95;;;;;;;8.60;100.00;99606.03;4980602;28;20077;-65
2021/10/04 01:00:14;;;;;;;6.75;1.10;;;;;;;8.58;100.00;99610.75;4964183;28;20061;-68
2021/10/04 01:02:40;;;;;;;5.30;0.80;;;;;;;8.61;100.00;99610.38;4963157;28;20062;-65
2021/10/04 01:05:07;;;;;;;3.80;1.08;;;;;;;8.62;100.00;99609.34;4970068;28;20085;-66
2021/10/04 01:07:33;;;;;;;3.53;1.05;;;;;;;8.62;100.00;99612.03;4978096;28;20027;-67
2021/10/04 01:09:59;;;;;;;3.08;1.00;;;;;;;8.71;100.00;99629.66;4981691;28;20084;-66
2021/10/04 01:12:25;;;;;;;6.68;1.45;;;;;;;8.72;100.00;99625.94;4961270;28;20072;-67
2021/10/04 01:14:51;;;;;;;5.28;0.98;;;;;;;8.69;100.00;99634.34;4978371;28;20042;-65
2021/10/04 01:17:19;;;;;;;4.72;1.05;;;;;;;8.76;100.00;99643.31;4978163;28;20458;-68
2021/10/04 01:19:44;;;;;;;2.22;0.85;;;;;;;8.72;99.83;99636.66;4961727;28;20220;-65
2021/10/04 01:22:10;;;;;;;6.97;1.10;;;;;;;8.69;99.93;99629.00;4980795;28;20030;-65
2021/10/04 01:24:36;;;;;;;6.07;1.40;;;;;;;8.71;100.00;99637.69;4976955;28;20872;-65
2021/10/04 01:27:03;;;;;;;5.03;1.38;;;;;;;8.74;99.77;99653.38;4977330;28;20034;-66
2021/10/04 01:29:30;;;;;;;5.10;1.20;;;;;;;8.65;99.96;99626.88;4984095;28;20088;-66
2021/10/04 01:31:55;;;;;;;3.63;1.40;;;;;;;8.67;100.00;99641.75;4980396;28;20113;-65
2021/10/04 01:34:21;;;;;;;7.10;1.40;;;;;;;8.63;100.00;99623.59;4996811;28;20129;-66
2021/10/04 01:36:47;;;;;;;5.90;1.23;;;;;;;8.48;100.00;99602.19;4975391;28;20041;-65
2021/10/04 01:39:12;;;;;;;5.25;1.17;;;;;;;8.52;100.00;99625.75;4979685;28;20472;-66
2021/10/04 01:41:38;;;;;;;3.40;0.95;;;;;;;8.44;100.00;99622.34;4949968;28;20225;-65
2021/10/04 01:44:04;;;;;;;4.43;1.27;;;;;;;8.36;100.00;99626.78;4981121;28;20104;-67
2021/10/04 01:46:30;;;;;;;7.50;1.35;;;;;;;8.25;100.00;99621.06;4974565;28;20038;-67
2021/10/04 01:48:55;;;;;;;4.47;0.90;;;;;;;8.13;100.00;99610.84;4972895;28;20373;-65
2021/10/04 01:51:21;;;;;;;3.97;1.00;;;;;;;8.13;100.00;99618.06;4978337;28;20412;-65
2021/10/04 01:53:47;;;;;;;2.03;1.10;;;;;;;8.07;100.00;99616.97;4957663;28;20046;-65
2021/10/04 01:56:12;;;;;;;4.90;1.10;;;;;;;8.00;100.00;99615.22;4982761;28;20038;-67
2021/10/04 01:58:38;;;;;;;7.38;1.48;;;;;;;7.91;100.00;99614.47;4979383;28;20066;-68
2021/10/04 02:01:05;;;;;;;5.55;1.10;;;;;;;7.79;100.00;99607.97;4987220;28;20092;-67
2021/10/04 02:03:30;;;;;;;7.75;1.35;;;;;;;7.78;100.00;99615.16;4976189;28;21892;-68
2021/10/04 02:05:56;;;;;;;6.68;1.13;;;;;;;7.78;100.00;99606.28;4983043;28;20121;-65
2021/10/04 02:08:22;;;;;;;7.60;1.15;;;;;;;7.84;100.00;99606.38;4976516;28;20034;-64
2021/10/04 02:10:48;;;;;;;3.30;1.30;;;;;;;7.82;100.00;99605.72;4978555;28;20038;-65
2021/10/04 02:13:14;;;;;;;7.50;1.20;;;;;;;7.85;100.00;99612.56;4974106;28;20531;-68
2021/10/04 02:15:40;;;;;;;4.85;1.10;;;;;;;7.82;100.00;99608.41;4978573;28;20042;-68
2021/10/04 02:18:07;;;;;;;4.57;1.00;;;;;;;7.98;100.00;99617.25;4977427;28;20460;-66
2021/10/04 02:20:37;;;;;;;6.93;1.08;;;;;;;7.91;100.00;99607.31;4979612;28;20044;-64
2021/10/04 02:23:06;;;;;;;9.38;1.40;;;;;;;7.82;100.00;99607.59;4969140;28;20042;-67
2021/10/04 02:25:41;;;;;;;5.13;1.30;;;;;;;7.65;100.00;99601.63;4974905;28;20038;-66
2021/10/04 02:28:09;;;;;;;3.10;1.10;;;;;;;7.51;100.00;99605.09;4977938;28;20697;-65
2021/10/04 02:30:36;;;;;;;8.25;1.33;;;;;;;7.39;100.00;99607.41;4981314;28;20044;-65
2021/10/04 02:33:03;;;;;;;6.50;1.52;;;;;;;7.30;100.00;99601.28;4984081;28;20042;-64
2021/10/04 02:35:29;;;;;;;6.55;1.40;;;;;;;7.22;100.00;99604.06;4959864;28;20034;-65
2021/10/04 02:37:57;;;;;;;5.88;1.30;;;;;;;7.13;100.00;99602.50;4970370;28;20041;-65
2021/10/04 02:40:24;;;;;;;6.43;1.30;;;;;;;7.02;100.00;99598.41;4972393;28;20308;-64
2021/10/04 02:42:51;;;;;;;5.75;1.17;;;;;;;6.95;100.00;99598.28;4969370;28;20041;-67
2021/10/04 02:45:18;;;;;;;4.15;0.85;;;;;;;6.92;100.00;99601.34;4979731;28;20092;-65
2021/10/04 02:47:46;;;;;;;3.25;1.20;;;;;;;6.98;100.00;99603.28;4976798;28;20046;-67
2021/10/04 02:50:15;;;;;;;5.25;1.05;;;;;;;7.01;100.00;99594.06;4978758;28;20026;-67
2021/10/04 02:52:43;;;;;;;5.45;1.65;;;;;;;7.04;100.00;99599.06;4977094;28;20308;-65
2021/10/04 02:55:09;;;;;;;5.35;1.23;;;;;;;7.18;100.00;99610.78;4977627;28;20468;-66
2021/10/04 02:57:37;;;;;;;4.70;1.48;;;;;;;7.21;100.00;99607.75;4974366;28;20054;-66
2021/10/04 03:00:08;;;;;;;5.13;1.98;;;;;;;7.39;100.00;99610.91;4985439;28;20105;-67
2021/10/04 03:02:38;;;;;;;5.25;1.27;;;;;;;7.53;100.00;99603.06;4979180;28;20211;-64
2021/10/04 03:05:04;;;;;;;5.20;1.23;;;;;;;7.61;100.00;99600.31;4981309;28;20055;-66
2021/10/04 03:07:29;;;;;;;10.13;1.90;;;;;;;7.65;100.00;99591.72;4971864;28;20045;-64
2021/10/04 03:09:55;;;;;;;4.78;1.33;;;;;;;7.69;100.00;99589.50;4980717;28;20042;-65
2021/10/04 03:12:21;;;;;;;5.70;1.70;;;;;;;7.70;100.00;99600.03;4971431;28;20034;-67
2021/10/04 03:14:47;;;;;;;9.52;1.90;;;;;;;7.66;100.00;99597.91;4992536;28;20042;-66
2021/10/04 03:17:13;;;;;;;4.47;1.27;;;;;;;7.61;100.00;99606.47;4973393;28;20054;-66
2021/10/04 03:19:38;;;;;;;9.05;1.30;;;;;;;7.51;100.00;99611.28;4976815;28;20042;-65
2021/10/04 03:22:04;;;;;;;8.93;1.30;;;;;;;7.35;100.00;99609.59;4965103;28;20026;-64
2021/10/04 03:24:31;;;;;;;7.47;1.13;;;;;;;7.21;100.00;99610.44;4979249;28;20034;-66
2021/10/04 03:26:57;;;;;;;4.22;1.10;;;;;;;7.13;100.00;99613.19;4980566;28;20026;-64
2021/10/04 03:29:23;;;;;;;6.50;1.20;;;;;;;7.09;100.00;99610.03;4979344;28;20395;-63
2021/10/04 03:31:49;;;;;;;5.22;1.63;;;;;;;7.20;100.00;99614.94;5000286;28;20040;-65
2021/10/04 03:34:15;;;;;;;4.68;1.20;;;;;;;7.36;100.00;99615.81;4985469;28;20122;-65
2021/10/04 03:36:40;;;;;;;8.27;1.38;;;;;;;7.48;100.00;99607.13;4969110;28;20395;-68
2021/10/04 03:39:07;;;;;;;3.85;1.17;;;;;;;7.56;100.00;99606.19;4980881;28;20026;-64
2021/10/04 03:41:33;;;;;;;7.45;1.33;;;;;;;7.63;100.00;99603.63;4979396;28;20100;-64
2021/10/04 03:43:59;;;;;;;7.80;1.30;;;;;;;7.63;100.00;99608.97;4978296;28;20053;-64
2021/10/04 03:46:24;;;;;;;5.65;1.40;;;;;;;7.60;100.00;99606.69;4976234;28;20042;-66
2021/10/04 03:48:50;;;;;;;6.07;1.30;;;;;;;7.64;100.00;99597.25;4975217;28;20089;-69
2021/10/04 03:51:16;;;;;;;9.35;1.50;;;;;;;7.73;100.00;99596.16;4980866;28;20165;-68
2021/10/04 03:53:42;;;;;;;6.80;1.50;;;;;;;7.81;100.00;99606.75;4982760;28;20125;-68
2021/10/04 03:56:08;;;;;;;4.28;1.25;;;;;;;7.88;100.00;99613.00;4964253;28;20058;-65
2021/10/04 03:58:34;;;;;;;8.13;1.10;;;;;;;7.72;100.00;99589.13;4974456;28;20041;-67
2021/10/04 04:00:59;;;;;;;5.60;1.20;;;;;;;7.63;100.00;99595.59;4961666;28;20144;-65
2021/10/04 04:03:25;;;;;;;9.75;1.70;;;;;;;7.55;100.00;99599.22;4981489;28;20073;-67
2021/10/04 04:05:51;;;;;;;7.65;1.67;;;;;;;7.45;100.00;99602.16;4976200;28;20038;-68
2021/10/04 04:08:16;;;;;;;6.63;1.27;;;;;;;7.37;100.00;99599.56;4981791;28;20467;-67
2021/10/04 04:10:42;;;;;;;7.53;1.23;;;;;;;7.37;100.00;99604.09;4977614;28;20046;-65
2021/10/04 04:13:07;;;;;;;4.38;1.33;;;;;;;7.30;100.00;99589.78;4978349;28;20030;-65
2021/10/04 04:15:33;;;;;;;6.60;1.15;;;;;;;7.30;100.00;99597.81;4963738;28;20034;-68
2021/10/04 04:17:59;;;;;;;6.20;1.20;;;;;;;7.09;100.00;99580.63;4980252;28;20039;-68
2021/10/04 04:20:27;;;;;;;2.97;1.35;;;;;;;7.21;100.00;99605.06;4979710;28;20743;-67
2021/10/04 04:22:52;;;;;;;10.30;1.63;;;;;;;7.19;100.00;99601.75;4978661;28;20042;-66
2021/10/04 04:25:18;;;;;;;6.72;1.38;;;;;;;7.17;100.00;99601.09;4983190;28;20102;-67
2021/10/04 04:27:44;;;;;;;7.43;1.33;;;;;;;7.18;100.00;99613.47;4985954;28;20039;-64
2021/10/04 04:30:11;;;;;;;5.25;1.27;;;;;;;7.19;100.00;99609.78;4975949;28;20524;-66
2021/10/04 04:32:38;;;;;;;8.45;1.20;;;;;;;7.23;100.00;99616.44;4978226;28;20049;-66
2021/10/04 04:35:07;;;;;;;5.13;0.93;;;;;;;7.13;100.00;99613.19;4980438;28;20030;-66
2021/10/04 04:37:38;;;;;;;5.43;1.30;;;;;;;7.14;100.00;99614.84;4978988;28;20046;-66
2021/10/04 04:40:07;;;;;;;5.93;1.05;;;;;;;7.04;100.00;99613.25;4979990;28;20030;-66
2021/10/04 04:42:32;;;;;;;4.88;1.10;;;;;;;7.02;100.00;99612.59;4976873;28;20041;-66
2021/10/04 04:44:58;;;;;;;6.65;1.75;;;;;;;6.95;100.00;99606.31;4961662;28;20046;-66
2021/10/04 04:47:24;;;;;;;6.63;1.02;;;;;;;7.05;100.00;99609.56;4945877;28;20047;-64
2021/10/04 04:49:50;;;;;;;5.82;1.23;;;;;;;7.06;100.00;99610.38;4971088;28;20046;-66
2021/10/04 04:52:16;;;;;;;8.05;1.50;;;;;;;7.07;100.00;99609.41;4974405;28;20547;-64
2021/10/04 04:54:47;;;;;;;4.53;1.50;;;;;;;7.08;100.00;99607.53;4974926;28;20101;-67
2021/10/04 04:57:12;;;;;;;6.50;1.42;;;;;;;6.93;100.00;99589.66;4981013;28;20040;-66
2021/10/04 04:59:38;;;;;;;4.05;1.40;;;;;;;7.08;100.00;99620.91;4977215;28;20030;-66
2021/10/04 05:02:04;;;;;;;5.28;0.98;;;;;;;7.09;100.00;99623.38;4960277;28;20042;-66
2021/10/04 05:04:30;;;;;;;6.45;1.10;;;;;;;6.89;100.00;99599.03;4975210;28;20038;-65
2021/10/04 05:06:57;;;;;;;5.53;0.98;;;;;;;6.96;100.00;99623.16;4963397;28;20045;-65
2021/10/04 05:09:23;;;;;;;6.95;1.30;;;;;;;6.91;100.00;99617.56;4965022;28;20117;-69
2021/10/04 05:11:49;;;;;;;6.85;1.00;;;;;;;6.87;100.00;99622.41;4943606;28;20030;-69
2021/10/04 05:14:17;;;;;;;7.47;1.13;;;;;;;6.75;100.00;99624.69;4978813;28;20064;-65
2021/10/04 05:16:43;;;;;;;5.80;1.25;;;;;;;6.60;100.00;99619.28;4986864;28;20471;-64
2021/10/04 05:19:08;;;;;;;6.70;1.20;;;;;;;6.65;100.00;99623.28;4974265;28;20462;-65
2021/10/04 05:21:39;;;;;;;5.90;1.10;;;;;;;6.69;100.00;99624.56;4957361;28;20033;-66
2021/10/04 05:24:05;;;;;;;4.63;1.33;;;;;;;6.74;100.00;99623.00;4981489;28;20030;-66
2021/10/04 05:26:31;;;;;;;6.38;1.30;;;;;;;6.82;100.00;99624.78;4982973;28;20068;-66
2021/10/04 05:28:56;;;;;;;5.07;1.50;;;;;;;6.95;100.00;99633.03;4979192;28;20487;-64
2021/10/04 05:31:22;;;;;;;7.35;1.67;;;;;;;7.11;100.00;99641.94;4979537;28;20026;-67
2021/10/04 05:33:48;;;;;;;6.05;1.60;;;;;;;7.21;100.00;99637.16;4978223;28;20054;-66
2021/10/04 05:36:14;;;;;;;4.40;1.30;;;;;;;7.15;100.00;99617.34;4993613;28;20030;-65
2021/10/04 05:38:39;;;;;;;10.07;1.40;;;;;;;7.20;100.00;99636.34;4984919;28;20038;-64
2021/10/04 05:41:05;;;;;;;10.60;1.77;;;;;;;7.11;100.00;99637.41;4960907;28;20045;-65
2021/10/04 05:43:32;;;;;;;8.57;1.35;;;;;;;7.00;100.00;99641.34;4977237;28;20034;-69
2021/10/04 05:45:59;;;;;;;6.03;1.20;;;;;;;7.14;100.00;99652.25;4975945;28;20554;-65
2021/10/04 05:48:26;;;;;;;5.88;1.35;;;;;;;7.24;100.00;99659.00;4973215;28;20664;-67
2021/10/04 05:50:52;;;;;;;7.25;1.30;;;;;;;7.29;100.00;99644.28;4973028;28;20974;-65
2021/10/04 05:53:18;;;;;;;3.47;0.90;;;;;;;7.34;100.00;99650.75;4972045;28;20030;-66
2021/10/04 05:55:47;;;;;;;5.22;1.15;;;;;;;7.36;100.00;99651.41;4969480;28;20121;-67
2021/10/04 05:58:13;;;;;;;3.00;1.00;;;;;;;7.42;100.00;99645.31;4973274;28;20444;-65
2021/10/04 06:00:39;;;;;;;4.07;1.25;;;;;;;7.43;100.00;99638.94;4977903;28;20471;-67
2021/10/04 06:03:05;;;;;;;5.18;1.10;;;;;;;7.47;100.00;99642.91;4977719;28;20515;-68
2021/10/04 06:05:31;;;;;;;6.68;1.52;;;;;;;7.26;100.00;99626.75;4979661;28;20034;-67
2021/10/04 06:07:56;;;;;;;4.57;1.20;;;;;;;7.07;100.00;99630.78;4980709;28;20038;-64
2021/10/04 06:10:22;;;;;;;4.68;1.10;;;;;;;6.90;100.00;99618.56;4980826;28;20447;-64
2021/10/04 06:12:47;;;;;;;4.93;1.42;;;;;;;6.80;100.00;99629.47;4995120;28;20061;-65
2021/10/04 06:15:14;;;;;;;3.60;1.05;;;;;;;6.65;100.00;99623.28;4979766;28;20049;-67
2021/10/04 06:17:40;;;;;;;9.68;1.70;;;;;;;6.61;100.00;99628.13;4977888;28;20036;-67
2021/10/04 06:20:07;;;;;;;6.47;1.23;;;;;;;6.53;100.00;99634.34;4978753;28;20507;-66
2021/10/04 06:22:33;;;;;;;3.53;1.95;;;;;;;6.52;100.00;99645.22;4977809;28;20697;-64
2021/10/04 06:24:59;;;;;;;5.43;1.33;;;;;;;6.49;100.00;99638.41;4995758;28;20476;-65
2021/10/04 06:27:25;;;;;;;5.65;1.02;;;;;;;6.46;100.00;99638.75;4982506;28;20480;-65
2021/10/04 06:29:51;;;;;;;4.53;1.20;;;;;;;6.30;100.00;99636.19;4964609;28;20031;-65
2021/10/04 06:32:19;;;;;;;5.10;1.35;;;;;;;6.27;100.00;99645.38;4978703;28;20459;-66
2021/10/04 06:34:45;;;;;;;4.25;0.95;;;;;;;6.29;100.00;99650.53;4975506;28;20101;-64
2021/10/04 06:37:11;;;;;;;3.40;1.38;;;;;;;6.30;100.00;99646.88;4960776;28;20117;-66
2021/10/04 06:39:36;;;;;;;6.05;1.05;;;;;;;6.35;100.00;99639.13;4977843;28;20042;-67
2021/10/04 06:42:02;;;;;;;5.05;1.27;;;;;;;6.55;100.00;99659.03;4979901;28;20121;-68
2021/10/04 06:44:28;;;;;;;14.20;1.10;;;;;;;6.64;100.00;99650.97;4977447;28;20038;-65
2021/10/04 06:46:54;;;;;;;6.03;1.27;;;;;;;6.84;100.00;99665.53;4982648;28;20049;-65
2021/10/04 06:49:19;;;;;;;8.18;2.28;;;;;;;6.87;100.00;99662.50;4975595;28;20030;-65
2021/10/04 06:51:45;;;;;;;4.95;1.52;;;;;;;6.90;100.00;99656.78;4977240;28;20596;-67
2021/10/04 06:54:10;;;;;;;8.55;1.80;;;;;;;6.88;100.00;99664.19;4965372;28;20534;-68
2021/10/04 06:56:36;;;;;;;3.47;1.45;;;;;;;6.89;100.00;99663.16;4985331;28;20506;-65
2021/10/04 06:59:02;;;;;;;5.47;1.50;;;;;;;6.89;100.00;99675.69;4983535;28;20399;-66
2021/10/04 07:01:32;;;;;;;4.38;1.30;;;;;;;6.78;100.00;99669.75;4978095;28;20089;-66
2021/10/04 07:03:58;;;;;;;4.85;1.40;;;;;;;6.74;100.00;99672.94;4997733;28;20454;-62
2021/10/04 07:06:24;;;;;;;7.75;1.40;;;;;;;6.74;100.00;99670.28;4984008;28;20791;-64
2021/10/04 07:08:49;;;;;;;3.90;1.27;;;;;;;6.72;100.00;99675.81;4955571;28;20041;-63
2021/10/04 07:11:15;;;;;;;5.75;1.30;;;;;;;6.72;100.00;99667.81;4966464;28;20026;-65
2021/10/04 07:13:46;;;;;;;6.63;1.30;;;;;;;6.76;100.00;99671.75;4985214;28;20038;-67
2021/10/04 07:16:12;;;;;;;7.68;1.35;;;;;;;6.81;100.00;99668.56;4965531;28;20444;-64
2021/10/04 07:18:46;;;;;;;7.00;1.55;;;;;;;6.92;100.00;99676.16;4994279;28;20033;-69
2021/10/04 07:21:12;;;;;;;2.47;1.35;;;;;;;6.95;100.00;99673.13;4997851;28;21590;-65
2021/10/04 07:23:38;;;;;;;6.75;1.40;;;;;;;7.02;100.00;99676.75;4980142;28;20076;-69
2021/10/04 07:26:05;;;;;;;5.78;1.30;;;;;;;7.10;100.00;99667.00;4981406;28;20041;-66
2021/10/04 07:28:31;;;;;;;2.80;1.05;;;;;;;7.22;100.00;99681.59;4947191;28;20031;-66
2021/10/04 07:30:58;;;;;;;4.65;1.00;;;;;;;7.19;100.00;99671.25;4984317;28;20053;-67
2021/10/04 07:33:24;;;;;;;4.32;1.00;;;;;;;7.24;100.00;99675.06;4984229;28;20088;-66
2021/10/04 07:35:51;;;;;;;5.90;1.10;;;;;;;7.21;100.00;99674.59;4961313;28;20053;-68
2021/10/04 07:38:18;;;;;;;3.03;0.80;;;;;;;7.23;100.00;99675.25;4981651;28;20030;-69
2021/10/04 07:40:44;;;;;;;6.30;1.10;;;;;;;7.22;100.00;99677.09;4983885;28;20037;-64
2021/10/04 07:43:10;;;;;;;4.10;1.23;;;;;;;7.24;100.00;99674.22;4982095;28;20038;-68
2021/10/04 07:45:36;;;;;;;7.20;1.20;;;;;;;7.29;100.00;99673.69;4983510;28;20027;-67
2021/10/04 07:48:02;;;;;;;2.65;0.80;;;;;;;7.31;100.00;99663.66;4964533;28;20073;-66
2021/10/04 07:50:28;;;;;;;5.47;1.17;;;;;;;7.55;100.00;99683.97;4981946;28;20030;-65
2021/10/04 07:52:54;;;;;;;3.20;1.20;;;;;;;7.85;100.00;99687.50;4987015;28;22754;-66
2021/10/04 07:55:22;;;;;;;2.60;1.30;;;;;;;8.08;100.00;99695.44;4975469;28;20031;-64
2021/10/04 07:57:50;;;;;;;8.57;2.38;;;;;;;8.32;100.00;99691.63;4987888;28;20054;-64
2021/10/04 08:00:18;;;;;;;9.38;1.92;;;;;;;8.49;100.00;99689.56;4987684;28;20149;-66
2021/10/04 08:02:44;;;;;;;7.63;1.42;;;;;;;8.59;100.00;99682.91;4991216;28;20407;-64
2021/10/04 08:05:11;;;;;;;6.55;1.42;;;;;;;8.82;100.00;99689.13;4972511;28;20735;-66
2021/10/04 08:07:40;;;;;;;5.18;1.40;;;;;;;8.91;100.00;99687.97;4990229;28;20072;-66
2021/10/04 08:10:07;;;;;;;3.40;1.67;;;;;;;9.08;100.00;99699.28;5006582;28;20034;-69
2021/10/04 08:12:33;;;;;;;8.77;2.10;;;;;;;9.15;100.00;99706.34;4971164;28;20074;-67
2021/10/04 08:14:59;;;;;;;5.15;1.48;;;;;;;8.96;100.00;99710.50;4979431;28;20039;-67
2021/10/04 08:17:25;;;;;;;8.63;1.38;;;;;;;8.83;100.00;99718.41;4980783;28;20042;-66
2021/10/04 08:19:51;;;;;;;5.68;1.30;;;;;;;8.68;100.00;99721.16;4957257;28;20030;-65
2021/10/04 08:22:37;;;;;;;5.15;1.30;;;;;;;8.54;100.00;99716.63;4971373;28;20121;-66
2021/10/04 08:25:05;;;;;;;9.13;1.70;;;;;;;8.42;100.00;99716.31;4974334;28;20459;-68
2021/10/04 08:27:31;;;;;;;7.88;1.42;;;;;;;8.35;100.00;99708.13;4974366;28;20444;-65
2021/10/04 08:29:57;;;;;;;6.90;1.77;;;;;;;8.34;100.00;99709.16;4956503;28;20141;-66
2021/10/04 08:32:22;;;;;;;2.92;1.00;;;;;;;8.30;100.00;99702.50;4986896;28;20041;-66
2021/10/04 08:34:48;;;;;;;6.20;1.40;;;;;;;8.34;100.00;99693.09;4990721;28;20054;-67
2021/10/04 08:37:14;;;;;;;4.13;1.60;;;;;;;8.44;100.00;99697.34;4988742;28;20408;-65
2021/10/04 08:39:39;;;;;;;5.05;1.40;;;;;;;8.59;100.00;99696.28;4956043;28;20045;-66
2021/10/04 08:42:06;;;;;;;6.45;1.33;;;;;;;8.83;100.00;99696.13;4959342;28;20085;-66
2021/10/04 08:44:32;;;;;;;9.75;1.73;;;;;;;9.15;100.00;99692.94;4991109;28;20038;-65
2021/10/04 08:46:58;;;;;;;4.90;1.60;;;;;;;9.49;100.00;99688.69;4989600;28;20129;-65
2021/10/04 08:49:26;;;;;;;10.15;4.10;;;;;;;9.84;100.00;99686.88;4961880;28;20439;-65
2021/10/04 08:51:51;;;;;;;9.43;2.95;;;;;;;10.09;100.00;99694.44;4999218;28;20101;-67
2021/10/04 08:54:26;;;;;;;7.82;3.08;;;;;;;10.19;100.00;99681.47;4983358;28;20038;-67
2021/10/04 08:56:53;;;;;;;6.93;2.33;;;;;;;10.23;100.00;99679.22;4978646;28;20026;-66
2021/10/04 08:59:19;;;;;;;7.57;1.83;;;;;;;10.29;99.81;99676.59;4972988;28;20053;-66
2021/10/04 09:01:45;;;;;;;4.85;1.88;;;;;;;10.27;99.30;99678.66;4951813;28;20043;-66
2021/10/04 09:04:20;;;;;;;7.30;1.60;;;;;;;10.28;98.88;99685.66;4974083;28;20298;-65
2021/10/04 09:06:46;;;;;;;6.55;1.50;;;;;;;10.37;99.27;99680.94;4974495;28;20027;-66
2021/10/04 09:09:14;;;;;;;8.07;1.58;;;;;;;10.79;98.37;99692.44;4971952;28;20060;-68
2021/10/04 09:11:48;;;;;;;6.97;1.35;;;;;;;11.13;96.82;99683.41;4972712;28;20121;-64
2021/10/04 09:14:20;;;;;;;3.72;1.55;;;;;;;11.13;96.02;99685.28;4988881;28;20042;-69
2021/10/04 09:17:07;;;;;;;7.35;1.40;;;;;;;11.10;96.03;99678.44;4990202;28;20038;-68
2021/10/04 09:19:40;;;;;;;8.07;1.30;;;;;;;11.59;93.62;99679.03;4983003;28;20484;-65
2021/10/04 09:22:20;;;;;;;4.13;1.20;;;;;;;12.10;91.59;99687.28;4979401;28;20130;-66
2021/10/04 09:25:01;;;;;;;6.63;1.33;;;;;;;12.73;88.50;99675.81;4969358;28;20043;-66
2021/10/04 09:27:34;;;;;;;4.57;1.70;;;;;;;13.50;85.67;99667.59;4970039;28;20464;-64
2021/10/04 09:30:05;;;;;;;7.95;1.45;;;;;;;14.80;80.74;99688.16;4971598;28;20096;-65
2021/10/04 09:32:38;;;;;;;6.88;1.40;;;;;;;15.54;77.65;99677.84;4973763;28;20038;-65
2021/10/04 09:35:18;;;;;;;9.45;1.63;;;;;;;15.90;73.93;99686.00;4971474;28;20038;-65
2021/10/04 09:37:46;;;;;;;15.35;5.70;;;;;;;15.68;73.54;99677.63;4972304;28;20542;-65
2021/10/04 09:40:32;;;;;;;6.68;1.70;;;;;;;15.01;75.65;99672.47;4986202;28;20034;-66
2021/10/04 09:42:59;;;;;;;7.15;1.45;;;;;;;14.61;76.11;99668.44;4956013;28;20404;-65
2021/10/04 09:45:25;;;;;;;5.82;1.50;;;;;;;15.84;72.22;99663.38;4989364;28;20042;-67
2021/10/04 09:47:52;;;;;;;10.18;2.38;;;;;;;16.11;71.18;99671.81;4956371;28;20031;-68
2021/10/04 09:50:24;;;;;;;5.53;1.15;;;;;;;16.09;69.03;99675.84;4976426;28;20042;-66
2021/10/04 09:52:52;;;;;;;7.18;2.05;;;;;;;16.11;69.55;99679.94;4956070;28;20049;-66
2021/10/04 09:55:30;;;;;;;15.13;5.78;;;;;;;16.02;68.79;99673.25;4970854;28;20494;-65
2021/10/04 09:58:03;;;;;;;9.27;2.60;;;;;;;15.82;68.94;99674.47;4972338;28;20034;-66
2021/10/04 10:00:54;;;;;;;8.07;1.60;;;;;;;15.45;69.57;99673.00;4990570;28;20480;-67
2021/10/04 10:03:22;;;;;;;5.45;0.88;;;;;;;14.80;70.74;99676.53;4982613;28;20125;-65
2021/10/04 10:05:52;;;;;;;6.78;2.22;;;;;;;14.57;72.14;99671.84;4970768;28;20095;-67
2021/10/04 10:08:21;;;;;;;7.53;3.10;;;;;;;14.65;71.95;99676.94;4954749;28;20045;-68
2021/10/04 10:10:47;;;;;;;9.95;2.45;;;;;;;14.83;71.37;99673.34;5000715;28;20463;-66
2021/10/04 10:13:17;;;;;;;7.40;3.70;;;;;;;15.16;70.60;99672.84;4990279;28;20462;-65
2021/10/04 10:15:47;;;;;;;5.13;1.10;;;;;;;15.48;69.78;99675.25;4970422;28;20093;-66
2021/10/04 10:18:20;;;;;;;5.63;2.88;;;;;;;15.80;68.92;99670.34;4971934;28;20047;-66
2021/10/04 10:20:53;;;;;;;8.88;1.50;;;;;;;15.55;68.74;99667.84;4954768;28;20065;-67
2021/10/04 10:23:57;;;;;;;3.92;1.10;;;;;;;15.35;69.44;99668.19;4989987;28;20122;-65
2021/10/04 10:26:47;;;;;;;9.20;2.10;;;;;;;15.01;70.41;99669.75;4969802;28;20495;-70
2021/10/04 10:29:13;;;;;;;7.47;3.13;;;;;;;14.99;70.77;99669.97;4985077;28;20080;-65
2021/10/04 10:31:51;;;;;;;5.72;2.42;;;;;;;14.88;71.42;99682.44;4972420;28;20117;-66
2021/10/04 10:34:23;;;;;;;3.40;1.27;;;;;;;14.58;72.00;99682.44;4974297;28;20045;-67
2021/10/04 10:37:21;;;;;;;6.22;1.40;;;;;;;14.54;72.05;99659.59;4970882;28;20036;-67
2021/10/04 10:39:59;;;;;;;6.20;1.00;;;;;;;14.67;72.34;99666.72;4976730;28;20351;-65
2021/10/04 10:42:41;;;;;;;6.68;1.20;;;;;;;15.09;71.51;99661.31;4973923;28;20045;-64
2021/10/04 10:45:08;;;;;;;4.75;1.00;;;;;;;14.99;71.30;99652.94;5008235;28;20046;-67
2021/10/04 10:47:37;;;;;;;9.20;1.20;;;;;;;14.93;71.20;99647.38;4974176;28;20041;-63
2021/10/04 10:50:21;;;;;;;6.63;1.10;;;;;;;14.62;72.76;99647.63;4969732;28;20041;-67
2021/10/04 10:53:09;;;;;;;8.82;1.38;;;;;;;14.45;73.50;99642.84;4975304;28;20116;-65
2021/10/04 10:55:40;;;;;;;4.32;0.93;;;;;;;14.54;74.04;99639.84;4972134;28;20042;-69
2021/10/04 10:58:09;;;;;;;5.57;1.00;;;;;;;14.73;73.51;99627.91;4993199;28;20057;-65
2021/10/04 11:00:42;;;;;;;5.25;1.10;;;;;;;14.62;73.51;99631.41;4967041;28;20034;-64
2021/10/04 11:03:22;;;;;;;2.88;0.82;;;;;;;14.56;72.83;99638.56;4972954;28;20026;-66
2021/10/04 11:06:09;;;;;;;3.78;0.82;;;;;;;14.22;73.09;99643.53;4987810;28;20037;-66
2021/10/04 11:08:34;;;;;;;1.63;1.00;;;;;;;14.15;73.91;99639.25;4960624;28;20113;-65
2021/10/04 11:11:00;;;;;;;6.88;0.98;;;;;;;14.08;73.70;99634.75;4974475;28;20165;-65
2021/10/04 11:13:33;;;;;;;7.30;0.90;;;;;;;14.07;74.59;99630.38;4972677;28;20109;-66
2021/10/04 11:16:05;;;;;;;;;;;;;;;14.15;73.27;99634.66;4975293;28;20467;-66
2021/10/04 11:18:39;;;;;;;2.85;0.90;;;;;;;14.08;73.62;99621.25;4973922;28;19918;-65
2021/10/04 11:21:08;;;;;;;4.43;0.80;;;;;;;14.04;73.63;99620.03;4983792;28;20039;-65
2021/10/04 11:23:39;;;;;;;5.25;1.65;;;;;;;14.02;72.97;99624.84;4978436;28;20043;-64
2021/10/04 11:26:08;;;;;;;3.65;0.80;;;;;;;13.98;73.33;99626.34;4975032;28;20030;-66
2021/10/04 11:28:33;;;;;;;4.93;1.50;;;;;;;14.04;72.67;99620.03;4993404;28;20044;-69
2021/10/04 11:31:01;;;;;;;3.20;0.70;;;;;;;13.90;72.93;99612.34;4974010;28;20054;-67
2021/10/04 11:33:29;;;;;;;3.00;0.80;;;;;;;13.74;73.10;99611.06;4976130;28;20041;-66
2021/10/04 11:36:05;;;;;;;3.38;0.80;;;;;;;13.87;72.48;99596.56;4975253;28;20488;-65
2021/10/04 11:38:46;;;;;;;5.63;0.88;;;;;;;14.14;71.04;99599.78;4975615;28;20034;-66